Time;durP1;ratioP1;P1;durP2;ratioP2;P2;SDS_P1;SDS_P2;PMS_P1;PMS_P2;Temp;Humidity;BMP_temperature;BMP_pressure;BME280_temperature;BME280_humidity;BME280_pressure;Samples;Min_cycle;Max_cycle;Signal;HPM_P1;HPM_P2
2021/07/15 00:00:54;;;;;;;12.73;9.30;;;19.60;99.90;;;;;;4131124;28;20030;-74
2021/07/15 00:02:55;;;;;;;;;;;19.60;99.90;;;;;;4134299;28;20538;-73
2021/07/15 00:04:55;;;;;;;15.77;10.45;;;19.60;99.90;;;;;;4131531;28;19913;-74
2021/07/15 00:06:56;;;;;;;16.05;10.88;;;19.60;99.90;;;;;;4117196;28;20038;-74
2021/07/15 00:08:57;;;;;;;17.45;11.45;;;19.60;99.90;;;;;;4154280;28;20050;-74
2021/07/15 00:11:04;;;;;;;16.10;11.80;;;19.50;99.90;;;;;;4129790;28;20065;-74
2021/07/15 00:13:06;;;;;;;14.98;11.15;;;19.50;99.90;;;;;;4136081;28;20033;-74
2021/07/15 00:15:07;;;;;;;15.95;11.40;;;19.50;99.90;;;;;;4136577;28;20030;-74
2021/07/15 00:17:08;;;;;;;15.55;10.88;;;19.50;99.90;;;;;;4133246;28;20038;-74
2021/07/15 00:19:11;;;;;;;19.83;11.75;;;19.50;99.90;;;;;;4140281;28;20129;-74
2021/07/15 00:21:14;;;;;;;16.38;11.57;;;19.50;99.90;;;;;;4131546;28;20046;-73
2021/07/15 00:23:15;;;;;;;16.77;12.50;;;19.50;99.90;;;;;;4129557;28;20046;-74
2021/07/15 00:25:19;;;;;;;18.98;12.20;;;19.50;99.90;;;;;;4130298;28;20196;-74
2021/07/15 00:27:20;;;;;;;18.38;12.40;;;19.40;99.90;;;;;;4135083;28;20041;-73
2021/07/15 00:29:21;;;;;;;17.35;11.82;;;19.40;99.90;;;;;;4137307;28;20129;-74
2021/07/15 00:31:22;;;;;;;13.52;10.65;;;19.40;99.90;;;;;;4138089;28;20092;-74
2021/07/15 00:33:23;;;;;;;13.63;10.65;;;19.40;99.90;;;;;;4136260;28;20600;-74
2021/07/15 00:35:23;;;;;;;14.38;10.90;;;19.40;99.90;;;;;;4133713;28;20034;-74
2021/07/15 00:37:24;;;;;;;14.88;10.23;;;19.40;99.90;;;;;;4130895;28;20065;-75
2021/07/15 00:39:25;;;;;;;18.55;11.63;;;19.40;99.90;;;;;;4130839;28;20042;-74
2021/07/15 00:41:26;;;;;;;15.40;10.40;;;19.40;99.90;;;;;;4139415;28;20118;-74
2021/07/15 00:43:26;;;;;;;12.02;9.75;;;19.40;99.90;;;;;;4139735;28;20030;-74
2021/07/15 00:45:27;;;;;;;13.85;9.85;;;19.50;99.90;;;;;;4133441;28;20078;-74
2021/07/15 00:47:28;;;;;;;13.77;10.45;;;19.50;99.90;;;;;;4134214;28;20680;-74
2021/07/15 00:49:28;;;;;;;14.00;10.73;;;19.50;99.90;;;;;;4135282;28;20096;-74
2021/07/15 00:51:30;;;;;;;15.13;10.88;;;19.50;99.90;;;;;;4131135;28;20396;-74
2021/07/15 00:53:31;;;;;;;15.13;10.90;;;19.50;99.90;;;;;;4131978;28;20114;-74
2021/07/15 00:55:37;;;;;;;12.38;9.70;;;19.60;99.90;;;;;;4136450;28;20281;-74
2021/07/15 00:57:38;;;;;;;13.75;10.57;;;19.50;99.90;;;;;;4129800;28;20034;-74
2021/07/15 00:59:38;;;;;;;14.65;10.68;;;19.60;99.90;;;;;;4132540;28;20437;-74
2021/07/15 01:01:39;;;;;;;15.32;10.93;;;19.60;99.90;;;;;;4140655;28;20062;-74
2021/07/15 01:03:40;;;;;;;13.57;10.43;;;19.60;99.90;;;;;;4139097;28;20030;-74
2021/07/15 01:05:49;;;;;;;14.20;10.48;;;19.60;99.90;;;;;;4130037;28;20043;-73
2021/07/15 01:07:50;;;;;;;15.55;11.23;;;19.60;99.90;;;;;;4128895;28;20046;-74
2021/07/15 01:09:51;;;;;;;17.83;10.88;;;19.60;99.90;;;;;;4135373;28;20419;-74
2021/07/15 01:12:10;;;;;;;14.38;10.80;;;19.60;99.90;;;;;;4137646;28;20525;-74
2021/07/15 01:14:35;;;;;;;15.73;10.48;;;19.60;99.90;;;;;;4133984;28;20050;-74
2021/07/15 01:16:49;;;;;;;15.27;9.55;;;19.60;99.90;;;;;;4130677;28;20096;-73
2021/07/15 01:19:18;;;;;;;15.00;10.50;;;19.60;99.90;;;;;;4133565;28;20073;-74
2021/07/15 01:21:40;;;;;;;12.90;9.60;;;19.60;99.90;;;;;;4127506;28;20030;-74
2021/07/15 01:24:23;;;;;;;15.48;10.60;;;19.60;99.90;;;;;;4123754;28;20030;-74
2021/07/15 01:26:23;;;;;;;14.45;10.05;;;19.60;99.90;;;;;;4116396;28;20122;-74
2021/07/15 01:28:53;;;;;;;14.32;10.05;;;19.60;99.90;;;;;;4136078;28;20034;-74
2021/07/15 01:30:58;;;;;;;14.50;10.05;;;19.60;99.90;;;;;;4134500;28;20089;-74
2021/07/15 01:33:15;;;;;;;15.70;10.88;;;19.60;99.90;;;;;;4138493;28;20037;-73
2021/07/15 01:35:20;;;;;;;17.40;11.15;;;19.60;99.90;;;;;;4140637;28;20038;-74
2021/07/15 01:37:21;;;;;;;16.65;11.75;;;19.60;99.90;;;;;;4139056;28;20045;-74
2021/07/15 01:39:30;;;;;;;17.40;12.18;;;19.60;99.90;;;;;;4137420;28;20044;-74
2021/07/15 01:41:55;;;;;;;15.65;11.25;;;19.60;99.90;;;;;;4140185;28;20066;-74
2021/07/15 01:44:00;;;;;;;18.17;11.80;;;19.50;99.90;;;;;;4152194;28;20673;-74
2021/07/15 01:46:05;;;;;;;15.80;11.98;;;19.60;99.90;;;;;;4138550;28;20042;-74
2021/07/15 01:48:06;;;;;;;18.80;12.50;;;19.60;99.90;;;;;;4135540;28;20101;-74
2021/07/15 01:50:08;;;;;;;19.02;11.27;;;19.60;99.90;;;;;;4135195;28;20045;-74
2021/07/15 01:52:09;;;;;;;18.58;12.80;;;19.60;99.90;;;;;;4137441;28;20394;-74
2021/07/15 01:54:10;;;;;;;18.63;11.93;;;19.60;99.90;;;;;;4131339;28;20109;-74
2021/07/15 01:56:11;;;;;;;18.63;11.90;;;19.50;99.90;;;;;;4134415;28;20042;-74
2021/07/15 01:58:13;;;;;;;19.33;11.93;;;19.60;99.90;;;;;;4136002;28;20038;-74
2021/07/15 02:00:14;;;;;;;17.98;12.65;;;19.60;99.90;;;;;;4134138;28;20042;-74
2021/07/15 02:02:16;;;;;;;17.95;12.45;;;19.50;99.90;;;;;;4131132;28;20062;-74
2021/07/15 02:04:17;;;;;;;19.17;11.88;;;19.60;99.90;;;;;;4136956;28;20184;-74
2021/07/15 02:06:19;;;;;;;18.13;11.88;;;19.50;99.90;;;;;;4130444;28;20038;-74
2021/07/15 02:08:21;;;;;;;17.48;10.20;;;19.50;99.90;;;;;;4136222;28;20033;-74
2021/07/15 02:10:26;;;;;;;15.10;10.55;;;19.50;99.90;;;;;;4138709;28;20038;-74
2021/07/15 02:12:28;;;;;;;15.65;10.93;;;19.50;99.90;;;;;;4142069;28;20800;-74
2021/07/15 02:14:29;;;;;;;17.85;11.40;;;19.60;99.90;;;;;;4135076;28;20552;-74
2021/07/15 02:16:31;;;;;;;16.52;11.95;;;19.50;99.90;;;;;;4138830;28;20128;-74
2021/07/15 02:18:32;;;;;;;;;;;19.50;99.90;;;;;;4131652;28;20049;-73
2021/07/15 02:20:33;;;;;;;16.42;10.57;;;19.60;99.90;;;;;;4140313;28;20353;-74
2021/07/15 02:22:34;;;;;;;16.15;11.30;;;19.60;99.90;;;;;;4135426;28;20042;-74
2021/07/15 02:24:36;;;;;;;17.88;11.98;;;19.60;99.90;;;;;;4137120;28;20041;-74
2021/07/15 02:26:38;;;;;;;15.15;10.82;;;19.60;99.90;;;;;;4135112;28;20455;-74
2021/07/15 02:28:40;;;;;;;16.38;11.18;;;19.60;99.90;;;;;;4135236;28;20592;-74
2021/07/15 02:30:45;;;;;;;17.15;11.90;;;19.60;99.90;;;;;;4132739;28;20049;-74
2021/07/15 02:32:56;;;;;;;18.13;12.07;;;19.60;99.90;;;;;;4135720;28;20061;-74
2021/07/15 02:35:05;;;;;;;19.02;12.70;;;19.70;99.90;;;;;;4137384;28;20485;-74
2021/07/15 02:37:06;;;;;;;18.83;12.77;;;19.60;99.90;;;;;;4139054;28;20085;-74
2021/07/15 02:39:09;;;;;;;19.50;12.43;;;19.70;99.90;;;;;;4137653;28;20073;-74
2021/07/15 02:41:10;;;;;;;21.00;13.82;;;19.60;99.90;;;;;;4137710;28;22429;-74
2021/07/15 02:43:11;;;;;;;19.23;13.05;;;19.60;99.90;;;;;;4129580;28;20038;-75
2021/07/15 02:45:15;;;;;;;20.45;13.40;;;19.60;99.90;;;;;;4134438;28;20081;-74
2021/07/15 02:47:16;;;;;;;22.52;13.45;;;19.70;99.90;;;;;;4135684;28;20532;-74
2021/07/15 02:49:17;;;;;;;19.55;12.55;;;19.70;99.90;;;;;;4128687;28;20030;-75
2021/07/15 02:51:17;;;;;;;20.88;14.50;;;19.60;99.90;;;;;;4135377;28;20040;-75
2021/07/15 02:53:21;;;;;;;18.02;12.75;;;19.70;99.90;;;;;;4140657;28;20465;-75
2021/07/15 02:55:23;;;;;;;20.27;13.43;;;19.60;99.90;;;;;;4135212;28;20040;-75
2021/07/15 02:57:24;;;;;;;18.48;12.55;;;19.60;99.90;;;;;;4142023;28;20141;-74
2021/07/15 02:59:42;;;;;;;17.30;11.80;;;19.60;99.90;;;;;;4138598;28;20041;-75
2021/07/15 03:02:07;;;;;;;17.75;12.05;;;19.70;99.90;;;;;;4135101;28;20043;-74
2021/07/15 03:04:29;;;;;;;18.77;12.15;;;19.60;99.90;;;;;;4136312;28;20046;-75
2021/07/15 03:06:42;;;;;;;16.90;11.70;;;19.60;99.90;;;;;;4138933;28;20168;-74
2021/07/15 03:08:53;;;;;;;19.08;11.23;;;19.60;99.90;;;;;;4141678;28;20040;-74
2021/07/15 03:10:55;;;;;;;17.27;11.98;;;19.60;99.90;;;;;;4139769;28;20058;-74
2021/07/15 03:12:57;;;;;;;19.27;13.05;;;19.60;99.90;;;;;;4137998;28;20490;-74
2021/07/15 03:14:58;;;;;;;20.60;13.35;;;19.60;99.90;;;;;;4140593;28;20022;-74
2021/07/15 03:17:00;;;;;;;21.55;13.38;;;19.60;99.90;;;;;;4135660;28;20038;-73
2021/07/15 03:19:04;;;;;;;25.25;15.15;;;19.60;99.90;;;;;;4137383;28;20044;-74
2021/07/15 03:21:05;;;;;;;22.40;14.20;;;19.60;99.90;;;;;;4138312;28;20034;-73
2021/07/15 03:23:15;;;;;;;27.33;15.25;;;19.50;99.90;;;;;;4135384;28;20030;-74
2021/07/15 03:25:17;;;;;;;23.42;14.35;;;19.50;99.90;;;;;;4138334;28;20041;-74
2021/07/15 03:27:19;;;;;;;22.20;14.18;;;19.50;99.90;;;;;;4133221;28;20512;-74
2021/07/15 03:29:20;;;;;;;22.77;13.53;;;19.50;99.90;;;;;;4139686;28;20443;-74
2021/07/15 03:31:23;;;;;;;19.58;12.70;;;19.40;99.90;;;;;;4136704;28;20273;-74
2021/07/15 03:33:25;;;;;;;21.00;13.30;;;19.50;99.90;;;;;;4137011;28;20066;-74
2021/07/15 03:35:27;;;;;;;22.55;13.15;;;19.50;99.90;;;;;;4134988;28;20037;-73
2021/07/15 03:37:28;;;;;;;23.90;14.33;;;19.50;99.90;;;;;;4133970;28;20064;-74
2021/07/15 03:39:29;;;;;;;25.55;15.25;;;19.50;99.90;;;;;;4134294;28;20046;-73
2021/07/15 03:41:30;;;;;;;21.70;14.10;;;19.50;99.90;;;;;;4133388;28;20072;-74
2021/07/15 03:43:32;;;;;;;21.75;13.48;;;19.50;99.90;;;;;;4129798;28;20038;-74
2021/07/15 03:45:33;;;;;;;;;;;19.50;99.90;;;;;;4139482;28;20050;-74
2021/07/15 03:47:35;;;;;;;22.60;13.55;;;19.50;99.90;;;;;;4136102;28;20358;-74
2021/07/15 03:49:36;;;;;;;23.73;14.07;;;19.50;99.90;;;;;;4140414;28;20038;-74
2021/07/15 03:51:37;;;;;;;20.75;13.90;;;19.50;99.90;;;;;;4136608;28;20497;-74
2021/07/15 03:53:39;;;;;;;24.02;15.77;;;19.60;99.90;;;;;;4133335;28;20117;-74
2021/07/15 03:55:41;;;;;;;23.40;14.40;;;19.50;99.90;;;;;;4140979;28;20038;-74
2021/07/15 03:57:45;;;;;;;21.58;13.65;;;19.60;99.90;;;;;;4135918;28;20034;-74
2021/07/15 03:59:52;;;;;;;25.83;14.82;;;19.60;99.90;;;;;;4138319;28;20038;-74
2021/07/15 04:02:01;;;;;;;20.55;12.50;;;19.50;99.90;;;;;;4135322;28;20030;-74
2021/07/15 04:04:06;;;;;;;20.17;12.63;;;19.60;99.90;;;;;;4129315;28;20688;-75
2021/07/15 04:06:08;;;;;;;21.27;13.90;;;19.50;99.90;;;;;;4138078;28;20045;-75
2021/07/15 04:08:09;;;;;;;;;;;19.50;99.90;;;;;;4141637;28;20124;-74
2021/07/15 04:10:12;;;;;;;16.33;10.85;;;19.50;99.90;;;;;;4138341;28;19918;-74
2021/07/15 04:12:14;;;;;;;19.13;12.13;;;19.50;99.90;;;;;;4133169;28;20034;-75
2021/07/15 04:14:22;;;;;;;20.45;12.27;;;19.50;99.90;;;;;;4138538;28;20033;-74
2021/07/15 04:16:37;;;;;;;17.75;10.75;;;19.50;99.90;;;;;;4135803;28;20686;-75
2021/07/15 04:18:39;;;;;;;15.88;10.30;;;19.50;99.90;;;;;;4137740;28;20084;-75
2021/07/15 04:20:41;;;;;;;20.65;11.68;;;19.50;99.90;;;;;;4138073;28;20061;-74
2021/07/15 04:22:44;;;;;;;20.02;11.45;;;19.50;99.90;;;;;;4136711;28;20050;-74
2021/07/15 04:24:46;;;;;;;20.77;12.20;;;19.50;99.90;;;;;;4139037;28;20453;-75
2021/07/15 04:26:48;;;;;;;19.92;11.45;;;19.50;99.90;;;;;;4138162;28;20041;-74
2021/07/15 04:28:50;;;;;;;20.45;12.38;;;19.50;99.90;;;;;;4132644;28;20038;-74
2021/07/15 04:31:10;;;;;;;17.23;11.03;;;19.50;99.90;;;;;;4139183;28;20030;-74
2021/07/15 04:33:11;;;;;;;17.90;10.77;;;19.40;99.90;;;;;;4137225;28;20049;-74
2021/07/15 04:35:14;;;;;;;13.65;8.45;;;19.40;99.90;;;;;;4135328;28;20050;-74
2021/07/15 04:37:16;;;;;;;15.90;9.77;;;19.40;99.90;;;;;;4136344;28;20494;-74
2021/07/15 04:39:17;;;;;;;17.20;10.85;;;19.30;99.90;;;;;;4133870;28;20047;-75
2021/07/15 04:41:19;;;;;;;16.95;10.95;;;19.30;99.90;;;;;;4135132;28;20113;-74
2021/07/15 04:43:22;;;;;;;19.95;11.43;;;19.20;99.90;;;;;;4136543;28;20030;-74
2021/07/15 04:45:25;;;;;;;;;;;19.20;99.90;;;;;;4136137;28;20038;-74
2021/07/15 04:47:27;;;;;;;18.70;10.23;;;19.10;99.90;;;;;;4141381;28;19921;-74
2021/07/15 04:49:29;;;;;;;16.35;10.35;;;19.10;99.90;;;;;;4129437;28;20495;-74
2021/07/15 04:51:30;;;;;;;17.20;10.10;;;19.10;99.90;;;;;;4132282;28;20050;-74
2021/07/15 04:53:31;;;;;;;15.95;10.25;;;19.00;99.90;;;;;;4135996;28;20033;-74
2021/07/15 04:55:32;;;;;;;16.40;10.18;;;19.00;99.90;;;;;;4137159;28;20531;-73
2021/07/15 04:57:34;;;;;;;22.17;13.95;;;19.00;99.90;;;;;;4135177;28;20449;-74
2021/07/15 04:59:37;;;;;;;20.13;12.17;;;19.00;99.90;;;;;;4131111;28;20045;-73
2021/07/15 05:01:39;;;;;;;21.08;13.90;;;19.10;99.90;;;;;;4137562;28;20061;-74
2021/07/15 05:03:39;;;;;;;21.40;13.98;;;19.00;99.90;;;;;;4132241;28;20042;-74
2021/07/15 05:05:40;;;;;;;20.30;12.80;;;19.00;99.90;;;;;;4132183;28;20572;-74
2021/07/15 05:07:41;;;;;;;16.38;11.05;;;19.00;99.90;;;;;;4136813;28;20482;-73
2021/07/15 05:09:41;;;;;;;19.13;11.85;;;19.00;99.90;;;;;;4138001;28;20215;-74
2021/07/15 05:11:42;;;;;;;17.15;11.35;;;19.00;99.90;;;;;;4135570;28;20038;-74
2021/07/15 05:13:43;;;;;;;17.50;11.65;;;19.00;99.90;;;;;;4141608;28;20062;-74
2021/07/15 05:15:48;;;;;;;18.63;12.00;;;19.10;99.90;;;;;;4142290;28;20045;-74
2021/07/15 05:17:49;;;;;;;20.35;12.68;;;19.10;99.90;;;;;;4143794;28;20511;-74
2021/07/15 05:19:51;;;;;;;17.95;11.98;;;19.10;99.90;;;;;;4143430;28;20062;-74
2021/07/15 05:21:51;;;;;;;18.02;12.02;;;19.10;99.90;;;;;;4139041;28;20629;-74
2021/07/15 05:23:52;;;;;;;19.08;12.35;;;19.20;99.90;;;;;;4133353;28;20035;-74
2021/07/15 05:25:54;;;;;;;18.65;11.82;;;19.20;99.90;;;;;;4129100;28;20070;-74
2021/07/15 05:27:55;;;;;;;19.20;12.68;;;19.20;99.90;;;;;;4130354;28;20122;-73
2021/07/15 05:29:56;;;;;;;21.02;11.60;;;19.20;99.90;;;;;;4140868;28;20069;-73
2021/07/15 05:31:56;;;;;;;18.42;12.07;;;19.20;99.90;;;;;;4137912;28;20026;-74
2021/07/15 05:33:57;;;;;;;18.08;11.85;;;19.20;99.90;;;;;;4130640;28;20042;-74
2021/07/15 05:35:58;;;;;;;18.92;13.00;;;19.30;99.90;;;;;;4140145;28;20034;-74
2021/07/15 05:37:59;;;;;;;22.20;13.52;;;19.20;99.90;;;;;;4138496;28;20069;-74
2021/07/15 05:40:00;;;;;;;16.85;11.45;;;19.20;99.90;;;;;;4137646;28;20049;-74
2021/07/15 05:42:02;;;;;;;19.33;12.05;;;19.20;99.90;;;;;;4138128;28;20123;-74
2021/07/15 05:44:02;;;;;;;17.93;11.93;;;19.30;99.90;;;;;;4136421;28;20928;-74
2021/07/15 05:46:04;;;;;;;17.58;12.05;;;19.20;99.90;;;;;;4137773;28;20038;-73
2021/07/15 05:48:05;;;;;;;15.10;10.70;;;19.30;99.90;;;;;;4138008;28;20194;-74
2021/07/15 05:50:06;;;;;;;17.30;12.40;;;19.30;99.90;;;;;;4138771;28;20149;-74
2021/07/15 05:52:08;;;;;;;17.75;12.77;;;19.30;99.90;;;;;;4135630;28;20037;-74
2021/07/15 05:54:09;;;;;;;18.63;12.45;;;19.30;99.90;;;;;;4136167;28;20662;-73
2021/07/15 05:56:09;;;;;;;20.25;12.27;;;19.30;99.90;;;;;;4138927;28;20073;-74
2021/07/15 05:58:10;;;;;;;21.23;13.32;;;19.30;99.90;;;;;;4134931;28;20050;-73
2021/07/15 06:00:12;;;;;;;23.17;14.20;;;19.30;99.90;;;;;;4136184;28;20103;-73
2021/07/15 06:02:12;;;;;;;18.08;11.73;;;19.30;99.90;;;;;;4132758;28;20045;-73
2021/07/15 06:04:13;;;;;;;21.45;12.98;;;19.30;99.90;;;;;;4131466;28;20653;-76
2021/07/15 06:06:14;;;;;;;18.27;11.90;;;19.30;99.90;;;;;;4147494;28;20049;-76
2021/07/15 06:08:15;;;;;;;22.67;13.50;;;19.30;99.90;;;;;;4138290;28;20065;-75
2021/07/15 06:10:15;;;;;;;20.38;12.85;;;19.30;99.90;;;;;;4139032;28;20033;-75
2021/07/15 06:12:17;;;;;;;17.33;11.63;;;19.30;99.90;;;;;;4132226;28;20159;-73
2021/07/15 06:14:18;;;;;;;20.08;13.23;;;19.30;99.90;;;;;;4134639;28;20129;-73
2021/07/15 06:16:19;;;;;;;20.77;12.77;;;19.30;99.90;;;;;;4134587;28;20065;-73
2021/07/15 06:18:20;;;;;;;18.13;11.87;;;19.30;99.90;;;;;;4140652;28;20030;-73
2021/07/15 06:20:21;;;;;;;17.52;12.25;;;19.30;99.90;;;;;;4139246;28;20056;-73
2021/07/15 06:22:22;;;;;;;18.80;12.65;;;19.30;99.90;;;;;;4136112;28;20038;-73
2021/07/15 06:24:22;;;;;;;19.05;12.75;;;19.40;99.90;;;;;;4136170;28;20060;-73
2021/07/15 06:26:23;;;;;;;18.67;12.75;;;19.30;99.90;;;;;;4136972;28;20121;-73
2021/07/15 06:28:24;;;;;;;19.63;11.95;;;19.30;99.90;;;;;;4134565;28;20066;-73
2021/07/15 06:30:25;;;;;;;20.23;12.35;;;19.30;99.90;;;;;;4135901;28;20114;-73
2021/07/15 06:32:26;;;;;;;16.83;11.57;;;19.30;99.90;;;;;;4138867;28;20049;-73
2021/07/15 06:34:27;;;;;;;18.50;12.25;;;19.30;99.90;;;;;;4137085;28;20422;-73
2021/07/15 06:36:30;;;;;;;16.92;11.13;;;19.30;99.90;;;;;;4137264;28;20040;-73
2021/07/15 06:38:33;;;;;;;17.90;12.00;;;19.40;99.90;;;;;;4136510;28;20129;-73
2021/07/15 06:40:34;;;;;;;17.30;11.15;;;19.40;99.90;;;;;;4134009;28;20132;-73
2021/07/15 06:42:36;;;;;;;16.65;11.15;;;19.30;99.90;;;;;;4132285;28;20422;-73
2021/07/15 06:44:37;;;;;;;11.40;8.85;;;19.30;99.90;;;;;;4131570;28;20054;-73
2021/07/15 06:46:38;;;;;;;12.95;9.25;;;19.30;99.90;;;;;;4138915;28;21159;-73
2021/07/15 06:48:39;;;;;;;15.38;9.98;;;19.30;99.90;;;;;;4138090;28;20235;-73
2021/07/15 06:50:41;;;;;;;12.77;8.45;;;19.30;99.90;;;;;;4137387;28;20085;-73
2021/07/15 06:52:43;;;;;;;14.35;9.65;;;19.30;99.90;;;;;;4134197;28;20130;-73
2021/07/15 06:54:43;;;;;;;12.98;7.95;;;19.30;99.90;;;;;;4139334;28;20037;-73
2021/07/15 06:56:44;;;;;;;14.48;7.88;;;19.30;99.90;;;;;;4138213;28;20087;-73
2021/07/15 06:58:44;;;;;;;10.00;6.07;;;19.30;99.90;;;;;;4139731;28;20044;-73
2021/07/15 07:00:45;;;;;;;13.38;7.35;;;19.30;99.90;;;;;;4133424;28;20069;-73
2021/07/15 07:02:46;;;;;;;10.75;6.40;;;19.30;99.90;;;;;;4119516;28;20073;-73
2021/07/15 07:04:47;;;;;;;7.80;5.15;;;19.30;99.90;;;;;;4135186;28;20046;-73
2021/07/15 07:06:48;;;;;;;7.47;5.07;;;19.30;99.90;;;;;;4133668;28;20482;-74
2021/07/15 07:08:48;;;;;;;7.47;5.35;;;19.30;99.90;;;;;;4131696;28;20053;-73
2021/07/15 07:10:49;;;;;;;6.10;3.83;;;19.20;99.90;;;;;;4136878;28;20040;-73
2021/07/15 07:12:51;;;;;;;7.70;4.57;;;19.30;99.90;;;;;;4135674;28;20038;-73
2021/07/15 07:14:51;;;;;;;8.88;4.57;;;19.20;99.90;;;;;;4138389;28;20604;-73
2021/07/15 07:16:52;;;;;;;5.68;3.97;;;19.20;99.90;;;;;;4137256;28;20049;-73
2021/07/15 07:18:52;;;;;;;5.00;3.97;;;19.20;99.90;;;;;;4135234;28;20089;-73
2021/07/15 07:20:54;;;;;;;4.68;3.90;;;19.20;99.90;;;;;;4128755;28;21003;-73
2021/07/15 07:22:54;;;;;;;4.75;3.83;;;19.20;99.90;;;;;;4137240;28;20049;-74
2021/07/15 07:24:55;;;;;;;6.97;4.43;;;19.20;99.90;;;;;;4136981;28;20030;-73
2021/07/15 07:26:55;;;;;;;6.95;3.95;;;19.20;99.90;;;;;;4134513;28;20030;-73
2021/07/15 07:28:56;;;;;;;5.57;3.58;;;19.20;99.90;;;;;;4132934;28;20561;-73
2021/07/15 07:30:57;;;;;;;4.95;3.60;;;19.20;99.90;;;;;;4137192;28;20058;-73
2021/07/15 07:32:58;;;;;;;5.32;3.03;;;19.20;99.90;;;;;;4134070;28;20555;-73
2021/07/15 07:34:58;;;;;;;5.18;3.20;;;19.20;99.90;;;;;;4134978;28;20046;-73
2021/07/15 07:36:59;;;;;;;4.82;3.63;;;19.20;99.90;;;;;;4132051;28;20030;-74
2021/07/15 07:39:00;;;;;;;10.15;4.15;;;19.20;99.90;;;;;;4131710;28;20865;-73
2021/07/15 07:41:01;;;;;;;6.70;4.40;;;19.20;99.90;;;;;;4135025;28;20121;-74
2021/07/15 07:43:01;;;;;;;5.18;4.20;;;19.10;99.90;;;;;;4134116;28;20156;-73
2021/07/15 07:45:07;;;;;;;8.43;5.10;;;19.10;99.90;;;;;;4114744;28;20030;-73
2021/07/15 07:47:08;;;;;;;4.97;4.30;;;19.10;99.90;;;;;;4134647;28;20099;-74
2021/07/15 07:49:09;;;;;;;5.50;4.43;;;19.10;99.90;;;;;;4136894;28;20042;-73
2021/07/15 07:51:09;;;;;;;5.32;4.60;;;19.10;99.90;;;;;;4135352;28;20623;-73
2021/07/15 07:53:10;;;;;;;7.15;5.50;;;19.20;99.90;;;;;;4135499;28;20153;-74
2021/07/15 07:55:11;;;;;;;7.70;5.20;;;19.20;99.90;;;;;;4135601;28;20045;-73
2021/07/15 07:57:12;;;;;;;7.72;5.47;;;19.10;99.90;;;;;;4136286;28;20077;-74
2021/07/15 07:59:13;;;;;;;6.75;4.70;;;19.10;99.90;;;;;;4135473;28;20042;-73
2021/07/15 08:01:14;;;;;;;6.65;4.57;;;19.20;99.90;;;;;;4136581;28;20513;-74
2021/07/15 08:03:17;;;;;;;5.93;4.67;;;19.20;99.90;;;;;;4135139;28;20100;-74
2021/07/15 08:05:21;;;;;;;;;;;19.20;99.90;;;;;;4135223;28;20044;-73
2021/07/15 08:07:22;;;;;;;5.93;5.32;;;19.20;99.90;;;;;;4135017;28;20305;-73
2021/07/15 08:09:25;;;;;;;6.38;4.70;;;19.20;99.90;;;;;;4133631;28;20044;-73
2021/07/15 08:11:28;;;;;;;8.10;5.80;;;19.30;99.90;;;;;;4132182;28;20097;-73
2021/07/15 08:13:29;;;;;;;4.63;4.15;;;19.30;99.90;;;;;;4137373;28;20031;-75
2021/07/15 08:15:29;;;;;;;7.72;4.35;;;19.40;99.90;;;;;;4133406;28;20037;-73
2021/07/15 08:17:30;;;;;;;4.90;4.15;;;19.40;99.90;;;;;;4117905;28;20077;-73
2021/07/15 08:19:31;;;;;;;6.95;4.15;;;19.50;99.90;;;;;;4149112;28;20037;-73
2021/07/15 08:21:32;;;;;;;8.68;5.20;;;19.50;99.90;;;;;;4134404;28;20152;-73
2021/07/15 08:23:32;;;;;;;7.05;5.80;;;19.50;99.90;;;;;;4136880;28;20092;-73
2021/07/15 08:25:33;;;;;;;6.70;5.65;;;19.50;99.90;;;;;;4137252;28;20026;-73
2021/07/15 08:27:34;;;;;;;6.90;5.10;;;19.50;99.90;;;;;;4135793;28;20740;-73
2021/07/15 08:29:35;;;;;;;6.70;5.55;;;19.60;99.90;;;;;;4137001;28;20095;-73
2021/07/15 08:31:35;;;;;;;6.18;5.03;;;19.60;99.90;;;;;;4137208;28;20037;-73
2021/07/15 08:33:36;;;;;;;6.88;5.55;;;19.60;99.90;;;;;;4139478;28;20038;-73
2021/07/15 08:35:37;;;;;;;6.50;5.20;;;19.70;99.90;;;;;;4140103;28;20501;-72
2021/07/15 08:37:38;;;;;;;7.85;5.88;;;19.70;99.90;;;;;;4136787;28;20049;-73
2021/07/15 08:39:39;;;;;;;10.13;5.90;;;19.70;99.90;;;;;;4139802;28;20042;-72
2021/07/15 08:41:40;;;;;;;8.98;5.70;;;19.80;99.90;;;;;;4139428;28;20041;-73
2021/07/15 08:43:43;;;;;;;7.45;5.93;;;19.80;99.90;;;;;;4137967;28;20069;-73
2021/07/15 08:45:44;;;;;;;;;;;19.90;99.90;;;;;;4140707;28;20775;-72
2021/07/15 08:47:45;;;;;;;7.30;5.38;;;19.90;99.90;;;;;;4139566;28;19921;-72
2021/07/15 08:49:46;;;;;;;9.98;6.35;;;20.00;99.90;;;;;;4135424;28;20038;-73
2021/07/15 08:51:48;;;;;;;8.93;6.75;;;20.00;99.90;;;;;;4138003;28;20041;-75
2021/07/15 08:53:49;;;;;;;9.93;7.35;;;20.10;99.90;;;;;;4138390;28;20034;-72
2021/07/15 08:57:50;;;;;;;10.88;7.28;;;20.20;99.90;;;;;;4138100;28;20385;-73
2021/07/15 08:59:51;;;;;;;11.05;7.43;;;20.20;99.90;;;;;;4138953;28;20049;-73
2021/07/15 09:01:53;;;;;;;17.58;10.52;;;20.30;99.90;;;;;;4137860;28;20034;-73
2021/07/15 09:03:54;;;;;;;16.93;10.30;;;20.30;99.90;;;;;;4139769;28;20065;-73
2021/07/15 09:05:54;;;;;;;17.55;11.23;;;20.30;99.90;;;;;;4138451;28;20343;-73
2021/07/15 09:07:55;;;;;;;17.05;10.68;;;20.40;99.90;;;;;;4137622;28;20033;-73
2021/07/15 09:09:56;;;;;;;16.10;9.98;;;20.50;99.90;;;;;;4140306;28;20037;-73
2021/07/15 09:11:58;;;;;;;19.17;11.48;;;20.60;99.90;;;;;;4138204;28;20092;-73
2021/07/15 09:13:59;;;;;;;19.58;11.45;;;20.60;99.90;;;;;;4138569;28;20425;-73
2021/07/15 09:15:59;;;;;;;22.10;13.55;;;20.60;99.90;;;;;;4136897;28;20033;-73
2021/07/15 09:18:00;;;;;;;32.65;16.45;;;20.70;99.90;;;;;;4120669;28;20035;-73
2021/07/15 09:20:05;;;;;;;26.95;15.10;;;20.70;99.90;;;;;;4137562;28;20159;-73
2021/07/15 09:22:12;;;;;;;23.80;14.07;;;20.70;99.90;;;;;;4137428;28;20409;-73
2021/07/15 09:24:33;;;;;;;21.73;13.30;;;20.70;99.90;;;;;;4140067;28;20046;-73
2021/07/15 09:26:34;;;;;;;19.95;11.07;;;20.80;99.90;;;;;;4136241;28;20138;-73
2021/07/15 09:28:35;;;;;;;23.02;12.75;;;20.80;99.90;;;;;;4136599;28;20703;-73
2021/07/15 09:30:36;;;;;;;20.65;11.65;;;20.90;99.90;;;;;;4136629;28;22703;-73
2021/07/15 09:32:55;;;;;;;25.67;14.30;;;20.90;99.90;;;;;;4140626;28;20042;-73
2021/07/15 09:35:06;;;;;;;25.35;14.50;;;20.90;99.90;;;;;;4137464;28;20038;-73
2021/07/15 09:37:15;;;;;;;27.90;15.32;;;20.90;99.90;;;;;;4133830;28;20038;-73
2021/07/15 09:39:24;;;;;;;31.33;16.58;;;21.00;99.90;;;;;;4138711;28;20038;-73
2021/07/15 09:41:25;;;;;;;27.30;14.52;;;21.00;99.90;;;;;;4139277;28;20080;-73
2021/07/15 09:43:30;;;;;;;25.83;13.98;;;21.10;99.90;;;;;;4138710;28;20645;-73
2021/07/15 09:45:30;;;;;;;22.58;13.45;;;21.10;99.90;;;;;;4138463;28;20633;-73
2021/07/15 09:47:39;;;;;;;23.25;13.32;;;21.10;99.90;;;;;;4138483;28;20041;-73
2021/07/15 09:49:41;;;;;;;24.98;14.70;;;21.10;99.90;;;;;;4137803;28;20044;-73
2021/07/15 09:51:45;;;;;;;22.85;13.65;;;21.10;99.90;;;;;;4135810;28;20426;-73
2021/07/15 09:53:48;;;;;;;27.42;15.85;;;21.20;99.90;;;;;;4137567;28;20587;-73
2021/07/15 09:55:58;;;;;;;29.60;16.05;;;21.20;99.90;;;;;;4135015;28;20091;-73
2021/07/15 09:58:04;;;;;;;28.55;15.95;;;21.30;99.90;;;;;;4134631;28;20109;-73
2021/07/15 10:00:05;;;;;;;33.90;16.23;;;21.30;99.90;;;;;;4137097;28;20064;-73
2021/07/15 10:02:06;;;;;;;26.35;15.05;;;21.30;99.90;;;;;;4136343;28;20109;-73
2021/07/15 10:04:08;;;;;;;24.35;13.50;;;21.30;99.90;;;;;;4138715;28;20042;-73
2021/07/15 10:06:11;;;;;;;22.33;13.90;;;21.30;99.90;;;;;;4134655;28;20407;-73
2021/07/15 10:08:12;;;;;;;19.55;12.45;;;21.40;99.90;;;;;;4137619;28;20042;-73
2021/07/15 10:10:19;;;;;;;18.30;12.07;;;21.30;99.90;;;;;;4138893;28;20037;-73
2021/07/15 10:12:25;;;;;;;16.27;11.63;;;21.30;99.90;;;;;;4137865;28;20113;-73
2021/07/15 10:14:38;;;;;;;17.15;10.40;;;21.30;99.90;;;;;;4120020;28;20097;-73
2021/07/15 10:16:41;;;;;;;20.42;12.75;;;21.30;99.90;;;;;;4138035;28;20038;-73
2021/07/15 10:18:46;;;;;;;15.00;10.85;;;21.40;99.90;;;;;;4137308;28;20512;-73
2021/07/15 10:20:56;;;;;;;13.25;9.23;;;21.30;99.90;;;;;;4120387;28;20159;-73
2021/07/15 10:22:57;;;;;;;10.75;7.40;;;21.40;99.90;;;;;;4137211;28;20052;-73
2021/07/15 10:24:57;;;;;;;8.57;7.30;;;21.40;99.90;;;;;;4136422;28;20030;-73
2021/07/15 10:27:00;;;;;;;8.23;6.93;;;21.40;99.90;;;;;;4136291;28;20034;-73
2021/07/15 10:29:01;;;;;;;8.10;6.88;;;21.40;99.90;;;;;;4137370;28;20074;-73
2021/07/15 10:31:05;;;;;;;9.95;7.60;;;21.40;99.90;;;;;;4138131;28;20054;-73